createdAt,value
2018-11-03T00:00:24.844Z,4.6
2018-11-03T00:05:53.361Z,4.6
2018-11-03T00:11:25.893Z,4.6
2018-11-03T00:16:53.634Z,4.5
2018-11-03T00:22:16.830Z,4.5
2018-11-03T00:27:50.289Z,4.4
2018-11-03T00:33:13.789Z,4.4
2018-11-03T00:38:42.273Z,4.4
2018-11-03T00:44:10.747Z,4.4
2018-11-03T00:49:43.717Z,4.4
2018-11-03T00:55:06.686Z,4.3
2018-11-03T01:00:35.182Z,4.2
2018-11-03T01:06:03.680Z,4.2
2018-11-03T01:11:37.087Z,4.1
2018-11-03T01:16:59.553Z,4.1
2018-11-03T01:22:28.054Z,4.1
2018-11-03T01:27:56.711Z,4.1
2018-11-03T01:33:24.945Z,4.1
2018-11-03T01:38:53.402Z,4.1
2018-11-03T01:44:26.872Z,4.1
2018-11-03T01:49:49.364Z,4.1
2018-11-03T01:55:17.845Z,4.1
2018-11-03T02:00:46.525Z,4.1
2018-11-03T02:06:16.523Z,4
2018-11-03T02:11:42.183Z,4
2018-11-03T02:17:09.595Z,3.9
2018-11-03T02:22:38.322Z,3.8
2018-11-03T02:28:07.373Z,3.7
2018-11-03T02:33:34.234Z,3.6
2018-11-03T02:39:02.418Z,3.6
2018-11-03T02:44:31.075Z,3.6
2018-11-03T02:49:58.502Z,3.5
2018-11-03T02:55:26.969Z,3.5
2018-11-03T03:00:59.470Z,3.4
2018-11-03T03:06:21.572Z,3.4
2018-11-03T03:11:54.069Z,3.4
2018-11-03T03:17:16.412Z,3.4
2018-11-03T03:22:44.133Z,3.4
2018-11-03T03:28:12.283Z,3.4
2018-11-03T03:33:39.735Z,3.4
2018-11-03T03:39:08.168Z,3.4
2018-11-03T03:44:35.540Z,3.4
2018-11-03T03:50:08.325Z,3.4
2018-11-03T03:55:35.705Z,3.4
2018-11-03T04:00:58.137Z,3.4
2018-11-03T04:06:26.399Z,3.4
2018-11-03T04:12:00.478Z,3.4
2018-11-03T04:17:22.379Z,3.4
2018-11-03T04:22:49.545Z,3.3
2018-11-03T04:28:21.982Z,3.3
2018-11-03T04:33:44.366Z,3.2
2018-11-03T04:39:12.774Z,3.2
2018-11-03T04:44:40.271Z,3.2
2018-11-03T04:50:07.617Z,3.2
2018-11-03T04:55:35.033Z,3.3
2018-11-03T05:01:02.497Z,3.2
2018-11-03T05:06:36.196Z,3.2
2018-11-03T05:12:04.313Z,3.1
2018-11-03T05:17:32.722Z,3.1
2018-11-03T05:22:55.400Z,3.1
2018-11-03T05:28:22.484Z,3.1
2018-11-03T05:33:51.183Z,3.1
2018-11-03T05:39:18.259Z,3.2
2018-11-03T05:44:45.688Z,3.2
2018-11-03T05:50:18.119Z,3.3
2018-11-03T05:55:45.565Z,3.3
2018-11-03T06:01:07.930Z,3.4
2018-11-03T06:06:40.388Z,3.4
2018-11-03T06:12:03.996Z,3.4
2018-11-03T06:17:31.189Z,3.5
2018-11-03T06:22:59.656Z,3.4
2018-11-03T06:28:32.314Z,3.4
2018-11-03T06:33:55.461Z,3.5
2018-11-03T06:39:28.912Z,3.6
2018-11-03T06:44:56.901Z,3.6
2018-11-03T06:50:24.758Z,3.6
2018-11-03T06:55:53.209Z,3.6
2018-11-03T07:01:16.629Z,3.6
2018-11-03T07:06:50.083Z,3.7
2018-11-03T07:12:17.757Z,3.8
2018-11-03T07:17:44.958Z,3.8
2018-11-03T07:23:13.374Z,3.8
2018-11-03T07:28:41.819Z,3.9
2018-11-03T07:34:05.310Z,4
2018-11-03T07:39:32.841Z,4
2018-11-03T07:45:01.485Z,4.1
2018-11-03T07:50:28.716Z,4.2
2018-11-03T07:55:56.167Z,4.3
2018-11-03T08:01:23.648Z,4.4
2018-11-03T08:06:51.126Z,4.5
2018-11-03T08:12:24.940Z,4.5
2018-11-03T08:17:47.154Z,4.6
2018-11-03T08:23:20.811Z,4.7
2018-11-03T08:28:48.114Z,4.8
2018-11-03T08:34:10.868Z,4.8
2018-11-03T08:39:39.272Z,4.8
2018-11-03T08:45:07.584Z,4.9
2018-11-03T08:50:36.092Z,4.9
2018-11-03T08:56:09.647Z,4.9
2018-11-03T09:01:32.092Z,5
2018-11-03T09:07:00.751Z,5
2018-11-03T09:12:28.169Z,5.1
2018-11-03T09:18:00.707Z,5.2
2018-11-03T09:23:23.543Z,5.3
2018-11-03T09:28:50.701Z,5.3
2018-11-03T09:34:18.550Z,5.4
2018-11-03T09:39:46.850Z,5.5
2018-11-03T09:45:14.717Z,5.6
2018-11-03T09:50:43.200Z,5.7
2018-11-03T09:56:10.811Z,5.8
2018-11-03T10:01:38.175Z,5.9
2018-11-03T10:07:05.705Z,6
2018-11-03T10:12:33.323Z,6.2
2018-11-03T10:18:01.067Z,6.3
2018-11-03T10:23:28.930Z,6.4
2018-11-03T10:29:02.732Z,6.5
2018-11-03T10:34:24.816Z,6.6
2018-11-03T10:39:52.750Z,6.7
2018-11-03T10:45:21.170Z,6.8
2018-11-03T10:50:48.771Z,7
2018-11-03T10:56:16.742Z,7.1
2018-11-03T11:01:44.230Z,7.1
2018-11-03T11:07:16.878Z,7.1
2018-11-03T11:12:40.550Z,7.1
2018-11-03T11:18:14.254Z,7.1
2018-11-03T11:23:37.015Z,7.1
2018-11-03T11:29:05.820Z,7.1
2018-11-03T11:34:38.353Z,7.2
2018-11-03T11:40:01.480Z,7.3
2018-11-03T11:45:29.701Z,7.4
2018-11-03T11:51:02.663Z,7.5
2018-11-03T11:56:26.089Z,7.6
2018-11-03T12:01:53.832Z,7.7
2018-11-03T12:07:27.848Z,7.8
2018-11-03T12:12:51.318Z,7.9
2018-11-03T12:18:20.231Z,8
2018-11-03T12:23:48.101Z,8
2018-11-03T12:29:16.558Z,8
2018-11-03T12:34:49.389Z,8.1
2018-11-03T12:40:12.080Z,8.2
2018-11-03T12:45:40.863Z,8.2
2018-11-03T12:51:09.632Z,8.2
2018-11-03T12:56:43.400Z,8.3
2018-11-03T13:02:06.432Z,8.4
2018-11-03T13:07:35.103Z,8.4
2018-11-03T13:13:03.729Z,8.4
2018-11-03T13:18:31.528Z,8.4
2018-11-03T13:23:59.617Z,8.4
2018-11-03T13:29:27.154Z,8.4
2018-11-03T13:34:55.943Z,8.4
2018-11-03T13:40:24.719Z,8.4
2018-11-03T13:45:53.464Z,8.3
2018-11-03T13:51:22.234Z,8.2
2018-11-03T13:56:51.087Z,8.1
2018-11-03T14:02:19.784Z,8
2018-11-03T14:07:47.679Z,7.9
2018-11-03T14:13:15.241Z,7.9
2018-11-03T14:18:43.207Z,7.8
2018-11-03T14:24:11.805Z,7.7
2018-11-03T14:29:39.653Z,7.7
2018-11-03T14:35:12.124Z,7.7
2018-11-03T14:40:35.846Z,7.6
2018-11-03T14:46:04.841Z,7.6
2018-11-03T14:51:33.534Z,7.5
2018-11-03T14:57:02.001Z,7.4
2018-11-03T15:02:35.759Z,7.4
2018-11-03T15:07:59.408Z,7.3
2018-11-03T15:13:27.148Z,7.2
2018-11-03T15:18:54.764Z,7.1
2018-11-03T15:24:22.545Z,7.1
2018-11-03T15:29:56.186Z,7
2018-11-03T15:35:20.767Z,6.9
2018-11-03T15:40:53.448Z,6.8
2018-11-03T15:46:21.054Z,6.7
2018-11-03T15:51:43.751Z,6.5
2018-11-03T15:57:17.756Z,6.4
2018-11-03T16:02:45.195Z,6.3
2018-11-03T16:08:08.583Z,6.2
2018-11-03T16:13:37.127Z,6.1
2018-11-03T16:19:04.991Z,6
2018-11-03T16:24:33.710Z,5.9
2018-11-03T16:30:02.291Z,5.8
2018-11-03T16:35:30.535Z,5.7
2018-11-03T16:40:58.024Z,5.6
2018-11-03T16:46:30.585Z,5.5
2018-11-03T16:51:54.103Z,5.5
2018-11-03T16:57:21.685Z,5.4
2018-11-03T17:02:49.438Z,5.3
2018-11-03T17:08:21.712Z,5.3
2018-11-03T17:13:44.191Z,5.2
2018-11-03T17:19:17.747Z,5.1
2018-11-03T17:30:07.811Z,5
2018-11-03T17:35:35.308Z,5
2018-11-03T17:41:03.492Z,4.9
2018-11-03T17:46:30.315Z,4.9
2018-11-03T17:51:58.103Z,4.9
2018-11-03T17:57:26.329Z,4.8
2018-11-03T18:02:59.191Z,4.8
2018-11-03T18:08:22.608Z,4.8
2018-11-03T18:13:50.856Z,4.8
2018-11-03T18:19:23.632Z,4.8
2018-11-03T18:24:47.813Z,4.8
2018-11-03T18:30:19.713Z,4.8
2018-11-03T18:35:41.854Z,4.7
2018-11-03T18:41:10.360Z,4.7
2018-11-03T18:46:37.896Z,4.7
2018-11-03T18:52:05.606Z,4.7
2018-11-03T18:57:38.143Z,4.7
2018-11-03T19:03:01.372Z,4.6
2018-11-03T19:08:34.127Z,4.6
2018-11-03T19:14:01.566Z,4.6
2018-11-03T19:19:24.777Z,4.6
2018-11-03T19:24:52.247Z,4.6
2018-11-03T19:30:20.834Z,4.6
2018-11-03T19:35:48.292Z,4.6
2018-11-03T19:41:16.723Z,4.6
2018-11-03T19:46:44.233Z,4.6
2018-11-03T19:52:13.170Z,4.6
2018-11-03T19:57:40.263Z,4.6
2018-11-03T20:03:08.205Z,4.5
2018-11-03T20:08:36.150Z,4.5
2018-11-03T20:14:04.665Z,4.4
2018-11-03T20:19:32.319Z,4.4
2018-11-03T20:24:59.538Z,4.3
2018-11-03T20:30:28.153Z,4.3
2018-11-03T20:35:56.414Z,4.2
2018-11-03T20:41:24.857Z,4.2
2018-11-03T20:46:58.314Z,4.2
2018-11-03T20:52:20.798Z,4.1
2018-11-03T20:57:49.205Z,4.1
2018-11-03T21:03:17.628Z,4
2018-11-03T21:08:45.110Z,4
2018-11-03T21:14:13.590Z,4
2018-11-03T21:19:41.957Z,4
2018-11-03T21:25:09.712Z,3.9
2018-11-03T21:30:36.913Z,3.9
2018-11-03T21:36:04.279Z,3.9
2018-11-03T21:41:31.769Z,3.8
2018-11-03T21:47:00.242Z,3.8
2018-11-03T21:52:32.982Z,3.8
2018-11-03T21:57:56.344Z,3.7
2018-11-03T22:03:23.768Z,3.7
2018-11-03T22:08:50.911Z,3.7
2018-11-03T22:14:23.321Z,3.7
2018-11-03T22:19:47.111Z,3.7
2018-11-03T22:25:15.205Z,3.6
2018-11-03T22:30:42.759Z,3.6
2018-11-03T22:36:11.040Z,3.6
2018-11-03T22:41:39.427Z,3.5
2018-11-03T22:47:06.862Z,3.5
2018-11-03T22:52:34.772Z,3.5
2018-11-03T22:58:06.672Z,3.5
2018-11-03T23:03:34.584Z,3.4
2018-11-03T23:08:56.512Z,3.4
2018-11-03T23:14:29.911Z,3.4
2018-11-03T23:19:53.313Z,3.4
2018-11-03T23:25:20.784Z,3.3
2018-11-03T23:30:49.083Z,3.3
2018-11-03T23:36:17.480Z,3.2
2018-11-03T23:41:45.859Z,3.2
2018-11-03T23:47:18.268Z,3.2
2018-11-03T23:52:41.044Z,3.2
2018-11-03T23:58:09.048Z,3.2
